createdAt,value
2019-02-23T00:00:51.121Z,39.30
2019-02-23T00:03:11.466Z,39.00
2019-02-23T00:05:32.877Z,38.80
2019-02-23T00:07:53.197Z,38.80
2019-02-23T00:10:13.502Z,38.40
2019-02-23T00:12:33.846Z,38.30
2019-02-23T00:14:54.176Z,38.50
2019-02-23T00:17:14.511Z,38.90
2019-02-23T00:19:34.785Z,39.70
2019-02-23T00:21:55.008Z,40.00
2019-02-23T00:24:15.279Z,40.60
2019-02-23T00:26:35.541Z,41.00
2019-02-23T00:28:55.785Z,41.20
2019-02-23T00:31:16.034Z,41.60
2019-02-23T00:33:36.336Z,42.20
2019-02-23T00:35:56.604Z,42.30
2019-02-23T00:38:16.840Z,42.00
2019-02-23T00:40:37.095Z,42.00
2019-02-23T00:42:57.438Z,42.00
2019-02-23T00:45:17.696Z,41.80
2019-02-23T00:47:38.024Z,41.90
2019-02-23T00:49:58.350Z,41.60
2019-02-23T00:52:18.583Z,41.70
2019-02-23T00:54:42.094Z,42.10
2019-02-23T00:57:02.355Z,41.40
2019-02-23T00:59:22.702Z,40.90
2019-02-23T01:01:43.105Z,41.40
2019-02-23T01:04:03.416Z,41.00
2019-02-23T01:06:23.695Z,40.30
2019-02-23T01:08:43.946Z,40.50
2019-02-23T01:11:04.503Z,40.50
2019-02-23T01:13:24.855Z,40.10
2019-02-23T01:15:46.243Z,40.00
2019-02-23T01:18:06.686Z,39.40
2019-02-23T01:20:26.947Z,39.10
2019-02-23T01:22:47.231Z,38.90
2019-02-23T01:25:07.732Z,38.80
2019-02-23T01:27:27.954Z,38.70
2019-02-23T01:29:49.145Z,38.80
2019-02-23T01:32:09.497Z,39.10
2019-02-23T01:34:29.736Z,38.90
2019-02-23T01:36:50.020Z,39.00
2019-02-23T01:39:10.402Z,38.90
2019-02-23T01:41:30.818Z,39.20
2019-02-23T01:43:51.088Z,39.40
2019-02-23T01:46:11.337Z,39.20
2019-02-23T01:48:31.653Z,39.00
2019-02-23T01:50:51.898Z,39.10
2019-02-23T01:53:12.150Z,39.20
2019-02-23T01:55:32.504Z,39.60
2019-02-23T01:57:52.826Z,39.60
2019-02-23T02:00:14.082Z,39.70
2019-02-23T02:02:34.425Z,39.70
2019-02-23T02:04:54.786Z,40.30
2019-02-23T02:07:15.379Z,41.20
2019-02-23T02:09:35.808Z,42.00
2019-02-23T02:11:56.091Z,42.40
2019-02-23T02:14:16.415Z,42.80
2019-02-23T02:16:36.685Z,43.30
2019-02-23T02:18:57.000Z,42.20
2019-02-23T02:21:17.362Z,42.30
2019-02-23T02:23:37.684Z,42.50
2019-02-23T02:25:57.923Z,42.70
2019-02-23T02:28:18.203Z,42.80
2019-02-23T02:30:38.517Z,42.90
2019-02-23T02:32:58.853Z,42.70
2019-02-23T02:35:19.104Z,42.40
2019-02-23T02:37:39.357Z,42.30
2019-02-23T02:39:59.714Z,41.80
2019-02-23T02:42:20.034Z,41.90
2019-02-23T02:44:40.360Z,42.50
2019-02-23T02:47:00.704Z,42.90
2019-02-23T02:49:20.955Z,43.20
2019-02-23T02:51:41.206Z,42.50
2019-02-23T02:54:01.482Z,41.30
2019-02-23T02:56:21.769Z,40.50
2019-02-23T02:58:42.424Z,39.90
2019-02-23T03:01:02.745Z,37.70
2019-02-23T03:03:23.163Z,37.10
2019-02-23T03:05:43.450Z,36.90
2019-02-23T03:08:03.834Z,36.80
2019-02-23T03:10:24.128Z,37.00
2019-02-23T03:12:44.745Z,37.30
2019-02-23T03:15:06.557Z,37.70
2019-02-23T03:17:26.903Z,37.20
2019-02-23T03:19:47.150Z,37.00
2019-02-23T03:22:07.463Z,37.80
2019-02-23T03:24:27.812Z,38.00
2019-02-23T03:26:48.062Z,38.00
2019-02-23T03:29:08.430Z,37.80
2019-02-23T03:31:28.723Z,37.50
2019-02-23T03:33:49.027Z,37.50
2019-02-23T03:36:09.320Z,38.60
2019-02-23T03:38:29.543Z,38.90
2019-02-23T03:40:49.819Z,38.10
2019-02-23T03:43:10.166Z,38.10
2019-02-23T03:45:30.489Z,37.70
2019-02-23T03:47:50.859Z,37.90
2019-02-23T03:50:11.177Z,37.80
2019-02-23T03:52:31.531Z,37.40
2019-02-23T03:54:51.818Z,37.80
2019-02-23T03:57:12.061Z,38.30
2019-02-23T03:59:32.390Z,37.70
2019-02-23T04:01:52.654Z,37.50
2019-02-23T04:04:12.991Z,37.40
2019-02-23T04:06:33.262Z,37.10
2019-02-23T04:08:53.596Z,37.10
2019-02-23T04:11:13.845Z,37.20
2019-02-23T04:13:34.230Z,37.50
2019-02-23T04:15:54.553Z,39.10
2019-02-23T04:18:15.867Z,39.10
2019-02-23T04:20:36.144Z,38.40
2019-02-23T04:22:56.392Z,37.50
2019-02-23T04:25:16.647Z,38.00
2019-02-23T04:27:36.937Z,37.10
2019-02-23T04:29:57.285Z,38.30
2019-02-23T04:32:17.608Z,38.30
2019-02-23T04:34:37.981Z,39.70
2019-02-23T04:36:58.327Z,40.20
2019-02-23T04:39:18.574Z,40.40
2019-02-23T04:41:38.919Z,41.50
2019-02-23T04:43:59.175Z,41.80
2019-02-23T04:46:19.424Z,40.90
2019-02-23T04:48:40.668Z,41.20
2019-02-23T04:51:00.911Z,41.70
2019-02-23T04:53:21.342Z,42.80
2019-02-23T04:55:41.575Z,44.00
2019-02-23T04:58:01.844Z,44.70
2019-02-23T05:00:22.098Z,45.50
2019-02-23T05:02:42.394Z,46.50
2019-02-23T05:05:02.715Z,47.10
2019-02-23T05:07:23.105Z,47.40
2019-02-23T05:09:43.393Z,47.80
2019-02-23T05:12:03.661Z,48.00
2019-02-23T05:14:24.024Z,48.30
2019-02-23T05:16:44.303Z,48.80
2019-02-23T05:19:04.571Z,49.30
2019-02-23T05:21:26.821Z,49.70
2019-02-23T05:23:46.243Z,50.20
2019-02-23T05:26:06.499Z,50.80
2019-02-23T05:28:27.140Z,50.80
2019-02-23T05:30:47.409Z,50.90
2019-02-23T05:33:07.659Z,51.90
2019-02-23T05:35:28.009Z,52.40
2019-02-23T05:37:48.375Z,52.40
2019-02-23T05:40:11.218Z,52.60
2019-02-23T05:42:30.907Z,52.40
2019-02-23T05:44:51.214Z,52.50
2019-02-23T05:47:11.492Z,52.60
2019-02-23T05:49:31.740Z,51.80
2019-02-23T05:51:52.068Z,51.20
2019-02-23T05:54:12.364Z,51.60
2019-02-23T05:56:32.654Z,51.60
2019-02-23T05:58:52.901Z,53.00
2019-02-23T06:01:13.187Z,52.80
2019-02-23T06:03:33.546Z,52.00
2019-02-23T06:05:53.794Z,51.80
2019-02-23T06:08:14.098Z,52.80
2019-02-23T06:10:34.370Z,53.00
2019-02-23T06:12:54.654Z,52.10
2019-02-23T06:15:14.965Z,51.30
2019-02-23T06:17:35.239Z,51.30
2019-02-23T06:19:55.536Z,51.50
2019-02-23T06:22:15.948Z,52.00
2019-02-23T06:24:36.333Z,53.00
2019-02-23T06:26:56.632Z,52.90
2019-02-23T06:29:16.988Z,53.00
2019-02-23T06:31:37.322Z,54.20
2019-02-23T06:33:57.652Z,53.60
2019-02-23T06:36:17.955Z,53.50
2019-02-23T06:38:38.190Z,52.20
2019-02-23T06:40:58.432Z,51.70
2019-02-23T06:43:18.785Z,50.00
2019-02-23T06:45:39.038Z,47.00
2019-02-23T06:47:59.279Z,43.30
2019-02-23T06:50:19.540Z,41.20
2019-02-23T06:52:39.910Z,42.10
2019-02-23T06:55:00.378Z,40.10
2019-02-23T06:57:21.906Z,36.70
2019-02-23T06:59:42.173Z,36.00
2019-02-23T07:02:02.434Z,34.40
2019-02-23T07:04:22.795Z,36.80
2019-02-23T07:06:43.154Z,39.40
2019-02-23T07:09:04.521Z,41.90
2019-02-23T07:11:24.880Z,40.40
2019-02-23T07:13:45.309Z,37.60
2019-02-23T07:16:05.534Z,36.50
2019-02-23T07:18:25.820Z,34.00
2019-02-23T07:20:47.143Z,32.40
2019-02-23T07:23:06.825Z,31.00
2019-02-23T07:25:27.104Z,31.70
2019-02-23T07:27:47.127Z,30.20
2019-02-23T07:30:12.768Z,30.10
2019-02-23T07:32:33.032Z,30.20
2019-02-23T07:34:52.787Z,27.40
2019-02-23T07:37:13.684Z,23.40
2019-02-23T07:39:33.402Z,20.50
2019-02-23T07:41:53.104Z,18.70
2019-02-23T07:44:12.861Z,16.90
2019-02-23T07:46:32.883Z,16.90
2019-02-23T07:48:52.873Z,17.30
2019-02-23T07:51:12.905Z,16.50
2019-02-23T07:53:33.116Z,19.70
2019-02-23T07:55:53.248Z,18.80
2019-02-23T07:58:13.320Z,17.90
2019-02-23T08:00:33.291Z,16.90
2019-02-23T08:02:53.428Z,16.40
2019-02-23T08:05:13.590Z,15.70
2019-02-23T08:07:33.756Z,14.10
2019-02-23T08:09:53.815Z,13.70
2019-02-23T08:12:16.860Z,13.90
2019-02-23T08:14:36.991Z,14.30
2019-02-23T08:16:56.908Z,13.50
2019-02-23T08:19:16.617Z,13.60
2019-02-23T08:21:36.344Z,14.20
2019-02-23T08:23:56.346Z,15.80
2019-02-23T08:26:16.500Z,24.00
2019-02-23T08:28:36.487Z,24.80
2019-02-23T08:30:56.951Z,23.60
2019-02-23T08:33:17.269Z,24.50
2019-02-23T08:35:37.535Z,25.60
2019-02-23T08:37:57.483Z,25.40
2019-02-23T08:40:18.105Z,26.00
2019-02-23T08:42:38.374Z,25.00
2019-02-23T08:44:58.605Z,26.00
2019-02-23T08:47:18.927Z,25.20
2019-02-23T08:49:39.203Z,25.20
2019-02-23T08:51:59.469Z,28.10
2019-02-23T08:54:19.775Z,28.10
2019-02-23T08:56:40.049Z,31.10
2019-02-23T08:59:00.311Z,28.90
2019-02-23T09:01:20.551Z,26.80
2019-02-23T09:03:40.899Z,25.50
2019-02-23T09:06:01.134Z,25.80
2019-02-23T09:08:21.441Z,25.00
2019-02-23T09:10:41.735Z,24.40
2019-02-23T09:13:02.052Z,22.40
2019-02-23T09:15:22.507Z,22.50
2019-02-23T09:17:45.187Z,21.60
2019-02-23T09:20:10.160Z,20.80
2019-02-23T09:22:30.592Z,20.50
2019-02-23T09:24:50.851Z,19.50
2019-02-23T09:27:11.198Z,20.90
2019-02-23T09:29:31.491Z,20.80
2019-02-23T09:31:51.811Z,19.60
2019-02-23T09:34:12.190Z,20.30
2019-02-23T09:36:32.483Z,18.50
2019-02-23T09:38:52.769Z,18.00
2019-02-23T09:41:13.105Z,18.10
2019-02-23T09:43:33.445Z,17.40
2019-02-23T09:45:53.701Z,17.00
2019-02-23T09:48:14.929Z,16.40
2019-02-23T09:50:35.293Z,17.20
2019-02-23T09:52:55.548Z,17.10
2019-02-23T09:55:15.816Z,16.00
2019-02-23T09:57:36.169Z,15.40
2019-02-23T09:59:55.944Z,15.30
2019-02-23T10:02:17.269Z,15.00
2019-02-23T10:04:37.554Z,15.60
2019-02-23T10:06:57.353Z,15.90
2019-02-23T10:09:17.657Z,17.30
2019-02-23T10:11:38.081Z,17.30
2019-02-23T10:13:58.424Z,17.20
2019-02-23T10:16:18.830Z,17.50
2019-02-23T10:18:39.156Z,16.10
2019-02-23T10:20:59.512Z,18.10
2019-02-23T10:23:22.308Z,21.20
2019-02-23T10:25:41.813Z,20.10
2019-02-23T10:28:02.099Z,18.30
2019-02-23T10:30:22.425Z,18.90
2019-02-23T10:32:42.815Z,19.40
2019-02-23T10:35:03.237Z,17.70
2019-02-23T10:37:23.530Z,17.70
2019-02-23T10:39:43.786Z,17.20
2019-02-23T10:42:04.049Z,17.30
2019-02-23T10:44:24.339Z,16.70
2019-02-23T10:46:44.599Z,14.10
2019-02-23T10:49:04.898Z,13.80
2019-02-23T10:51:25.431Z,13.10
2019-02-23T10:53:45.783Z,12.10
2019-02-23T10:56:06.104Z,11.40
2019-02-23T10:58:26.455Z,12.20
2019-02-23T11:00:46.720Z,12.70
2019-02-23T11:03:06.970Z,12.20
2019-02-23T11:05:27.263Z,12.10
2019-02-23T11:07:47.535Z,11.40
2019-02-23T11:10:08.836Z,12.50
2019-02-23T11:12:28.515Z,12.80
2019-02-23T11:14:48.806Z,12.10
2019-02-23T11:17:09.069Z,12.40
2019-02-23T11:19:29.382Z,11.50
2019-02-23T11:21:49.707Z,10.50
2019-02-23T11:24:09.495Z,10.40
2019-02-23T11:26:29.921Z,10.90
2019-02-23T11:28:49.763Z,11.00
2019-02-23T11:31:10.148Z,11.20
2019-02-23T11:33:30.486Z,10.10
2019-02-23T11:35:50.840Z,10.90
2019-02-23T11:38:11.099Z,10.20
2019-02-23T11:40:31.424Z,11.30
2019-02-23T11:42:51.225Z,11.50
2019-02-23T11:45:12.753Z,10.80
2019-02-23T11:47:33.245Z,10.90
2019-02-23T11:49:53.505Z,10.20
2019-02-23T11:52:13.911Z,8.90
2019-02-23T11:54:33.706Z,8.60
2019-02-23T11:56:53.951Z,9.70
2019-02-23T11:59:13.660Z,9.60
2019-02-23T12:01:33.453Z,9.30
2019-02-23T12:03:53.267Z,9.20
2019-02-23T12:06:12.944Z,9.20
2019-02-23T12:08:33.232Z,9.80
2019-02-23T12:10:54.461Z,10.00
2019-02-23T12:13:14.797Z,10.30
2019-02-23T12:15:35.160Z,12.40
2019-02-23T12:17:55.553Z,12.30
2019-02-23T12:20:15.933Z,12.00
2019-02-23T12:22:36.293Z,11.10
2019-02-23T12:24:56.643Z,12.00
2019-02-23T12:27:17.988Z,12.80
2019-02-23T12:29:37.800Z,12.90
2019-02-23T12:31:58.051Z,12.50
2019-02-23T12:34:18.366Z,11.30
2019-02-23T12:36:38.703Z,12.20
2019-02-23T12:38:58.994Z,12.70
2019-02-23T12:41:19.029Z,14.30
2019-02-23T12:43:39.429Z,13.80
2019-02-23T12:45:59.719Z,12.90
2019-02-23T12:48:20.043Z,12.00
2019-02-23T12:50:40.500Z,11.00
2019-02-23T12:53:00.806Z,10.50
2019-02-23T12:55:21.170Z,10.80
2019-02-23T12:57:41.536Z,11.60
2019-02-23T13:00:03.625Z,12.30
2019-02-23T13:02:25.263Z,13.20
2019-02-23T13:04:45.713Z,13.20
2019-02-23T13:07:06.087Z,12.50
2019-02-23T13:09:28.895Z,12.80
2019-02-23T13:11:52.218Z,12.60
2019-02-23T13:14:41.347Z,12.40
2019-02-23T13:17:10.540Z,11.10
2019-02-23T13:19:50.704Z,10.60
2019-02-23T13:22:14.250Z,12.90
2019-02-23T13:24:43.566Z,13.50
2019-02-23T13:27:12.905Z,13.00
2019-02-23T13:29:45.616Z,13.20
2019-02-23T13:32:14.562Z,13.50
2019-02-23T13:34:38.146Z,16.20
2019-02-23T13:37:18.487Z,17.70
2019-02-23T13:39:48.156Z,18.50
2019-02-23T13:42:30.004Z,19.10
2019-02-23T13:45:15.883Z,18.00
2019-02-23T13:47:45.442Z,18.70
2019-02-23T13:50:26.965Z,16.90
2019-02-23T13:53:02.471Z,16.90
2019-02-23T13:55:35.089Z,17.20
2019-02-23T13:57:58.045Z,17.30
2019-02-23T14:00:27.599Z,18.30
2019-02-23T14:03:13.811Z,18.70
2019-02-23T14:05:52.301Z,18.60
2019-02-23T14:08:44.934Z,18.00
2019-02-23T14:11:11.273Z,16.80
2019-02-23T14:13:40.922Z,16.50
2019-02-23T14:16:13.473Z,15.70
2019-02-23T14:18:53.462Z,14.60
2019-02-23T14:21:36.405Z,15.40
2019-02-23T14:24:18.791Z,15.30
2019-02-23T14:26:44.840Z,13.50
2019-02-23T14:29:14.487Z,13.80
2019-02-23T14:31:49.790Z,14.80
2019-02-23T14:34:28.654Z,14.60
2019-02-23T14:37:18.796Z,15.20
2019-02-23T14:39:58.753Z,15.10
2019-02-23T14:42:31.507Z,15.80
2019-02-23T14:45:14.876Z,17.30
2019-02-23T14:47:45.023Z,18.70
2019-02-23T14:50:21.164Z,19.00
2019-02-23T14:53:19.539Z,19.60
2019-02-23T14:55:54.916Z,19.90
2019-02-23T14:58:37.634Z,20.10
2019-02-23T15:01:06.115Z,20.10
2019-02-23T15:03:56.668Z,20.50
2019-02-23T15:06:36.384Z,20.50
2019-02-23T15:09:14.507Z,20.30
2019-02-23T15:11:44.348Z,20.70
2019-02-23T15:14:07.872Z,21.30
2019-02-23T15:16:52.438Z,21.70
2019-02-23T15:19:24.821Z,21.90
2019-02-23T15:21:54.139Z,22.20
2019-02-23T15:24:37.229Z,22.60
2019-02-23T15:27:13.686Z,22.60
2019-02-23T15:29:45.969Z,22.90
2019-02-23T15:32:27.389Z,23.30
2019-02-23T15:34:58.316Z,23.60
2019-02-23T15:37:21.890Z,23.40
2019-02-23T15:39:52.255Z,23.60
2019-02-23T15:42:35.397Z,23.80
2019-02-23T15:45:07.414Z,24.10
2019-02-23T15:47:33.652Z,24.50
2019-02-23T15:49:55.886Z,24.80
2019-02-23T15:52:16.694Z,25.00
2019-02-23T15:54:37.004Z,24.80
2019-02-23T15:56:57.389Z,24.70
2019-02-23T15:59:17.849Z,24.70
2019-02-23T16:01:38.159Z,24.80
2019-02-23T16:03:58.534Z,25.10
2019-02-23T16:06:18.860Z,25.20
2019-02-23T16:08:39.287Z,25.20
2019-02-23T16:10:59.663Z,25.40
2019-02-23T16:13:19.981Z,25.60
2019-02-23T16:15:40.340Z,26.10
2019-02-23T16:18:00.584Z,26.70
2019-02-23T16:20:20.893Z,26.80
2019-02-23T16:22:41.176Z,26.90
2019-02-23T16:25:01.565Z,27.30
2019-02-23T16:27:21.968Z,27.50
2019-02-23T16:29:42.275Z,27.70
2019-02-23T16:32:02.613Z,28.10
2019-02-23T16:34:23.048Z,28.20
2019-02-23T16:36:43.357Z,28.30
2019-02-23T16:39:06.304Z,28.70
2019-02-23T16:41:27.334Z,29.00
2019-02-23T16:43:47.615Z,29.00
2019-02-23T16:46:08.032Z,29.20
2019-02-23T16:48:28.554Z,29.50
2019-02-23T16:50:49.370Z,29.60
2019-02-23T16:53:09.990Z,29.50
2019-02-23T16:55:30.279Z,29.50
2019-02-23T16:57:50.744Z,30.00
2019-02-23T17:00:11.444Z,30.00
2019-02-23T17:02:32.028Z,30.20
2019-02-23T17:04:53.953Z,30.50
2019-02-23T17:07:14.281Z,30.70
2019-02-23T17:09:34.044Z,30.70
2019-02-23T17:11:54.420Z,30.90
2019-02-23T17:14:14.825Z,31.10
2019-02-23T17:16:35.161Z,31.50
2019-02-23T17:18:55.586Z,31.70
2019-02-23T17:21:17.218Z,31.90
2019-02-23T17:23:37.561Z,32.00
2019-02-23T17:26:04.349Z,32.30
2019-02-23T17:28:19.728Z,32.60
2019-02-23T17:30:40.081Z,33.00
2019-02-23T17:33:00.375Z,33.20
2019-02-23T17:35:20.719Z,32.90
2019-02-23T17:37:41.054Z,33.10
2019-02-23T17:40:01.289Z,33.50
2019-02-23T17:42:28.010Z,33.80
2019-02-23T17:44:43.827Z,33.60
2019-02-23T17:47:04.209Z,34.30
2019-02-23T17:49:24.592Z,35.20
2019-02-23T17:51:44.963Z,34.70
2019-02-23T17:54:05.483Z,35.30
2019-02-23T17:56:25.879Z,35.70
2019-02-23T17:58:46.523Z,35.60
2019-02-23T18:01:06.791Z,36.40
2019-02-23T18:03:27.049Z,36.60
2019-02-23T18:05:47.430Z,38.50
2019-02-23T18:08:07.721Z,40.30
2019-02-23T18:10:28.087Z,41.10
2019-02-23T18:12:49.243Z,41.30
2019-02-23T18:15:09.997Z,41.70
2019-02-23T18:17:30.354Z,41.30
2019-02-23T18:19:50.772Z,40.30
2019-02-23T18:22:11.219Z,40.10
2019-02-23T18:24:31.733Z,39.80
2019-02-23T18:26:52.082Z,39.70
2019-02-23T18:29:12.383Z,40.30
2019-02-23T18:31:32.726Z,40.20
2019-02-23T18:33:53.068Z,40.20
2019-02-23T18:36:13.508Z,40.90
2019-02-23T18:38:33.859Z,41.30
2019-02-23T18:40:54.127Z,41.50
2019-02-23T18:43:15.443Z,41.70
2019-02-23T18:45:35.728Z,42.10
2019-02-23T18:47:56.158Z,42.10
2019-02-23T18:50:16.545Z,41.90
2019-02-23T18:52:36.920Z,42.10
2019-02-23T18:54:57.234Z,43.20
2019-02-23T18:57:17.489Z,43.50
2019-02-23T18:59:37.786Z,43.40
2019-02-23T19:01:58.027Z,43.50
2019-02-23T19:04:18.320Z,44.20
2019-02-23T19:06:38.675Z,44.90
2019-02-23T19:08:58.946Z,45.70
2019-02-23T19:11:19.253Z,46.10
2019-02-23T19:13:39.657Z,46.90
2019-02-23T19:16:00.025Z,46.80
2019-02-23T19:18:20.318Z,46.60
2019-02-23T19:20:40.762Z,46.30
2019-02-23T19:23:01.069Z,47.00
2019-02-23T19:25:21.546Z,47.20
2019-02-23T19:27:41.821Z,46.50
2019-02-23T19:30:02.155Z,46.40
2019-02-23T19:32:24.058Z,46.60
2019-02-23T19:34:44.331Z,46.80
2019-02-23T19:37:04.700Z,46.60
2019-02-23T19:39:25.067Z,46.60
2019-02-23T19:41:45.503Z,47.30
2019-02-23T19:44:05.850Z,47.50
2019-02-23T19:46:26.412Z,48.10
2019-02-23T19:48:46.697Z,48.40
2019-02-23T19:51:08.454Z,48.20
2019-02-23T19:53:28.855Z,47.90
2019-02-23T19:55:49.219Z,48.20
2019-02-23T19:58:09.592Z,48.50
2019-02-23T20:00:30.022Z,49.00
2019-02-23T20:02:50.555Z,49.60
2019-02-23T20:05:11.322Z,50.10
2019-02-23T20:07:31.757Z,50.20
2019-02-23T20:09:52.196Z,50.40
2019-02-23T20:12:12.567Z,50.60
2019-02-23T20:14:32.911Z,50.60
2019-02-23T20:16:53.283Z,50.70
2019-02-23T20:19:13.588Z,51.30
2019-02-23T20:21:33.896Z,51.80
2019-02-23T20:23:54.370Z,52.80
2019-02-23T20:26:16.452Z,52.50
2019-02-23T20:28:36.631Z,51.80
2019-02-23T20:30:56.244Z,52.10
2019-02-23T20:33:16.604Z,52.10
2019-02-23T20:35:36.983Z,52.30
2019-02-23T20:37:57.382Z,52.20
2019-02-23T20:40:17.741Z,52.60
2019-02-23T20:42:38.052Z,52.90
2019-02-23T20:44:58.507Z,53.30
2019-02-23T20:47:18.861Z,53.80
2019-02-23T20:49:39.311Z,54.40
2019-02-23T20:51:59.669Z,54.40
2019-02-23T20:54:20.016Z,54.60
2019-02-23T20:56:40.322Z,54.60
2019-02-23T20:59:00.659Z,54.50
2019-02-23T21:01:21.058Z,54.30
2019-02-23T21:03:41.449Z,54.40
2019-02-23T21:06:01.787Z,55.10
2019-02-23T21:08:22.223Z,55.20
2019-02-23T21:10:42.567Z,55.00
2019-02-23T21:13:02.957Z,54.60
2019-02-23T21:15:23.340Z,54.50
2019-02-23T21:17:43.690Z,54.40
2019-02-23T21:20:05.473Z,54.60
2019-02-23T21:22:26.024Z,55.30
2019-02-23T21:24:46.321Z,55.70
2019-02-23T21:27:12.785Z,55.70
2019-02-23T21:29:28.070Z,56.20
2019-02-23T21:31:48.328Z,55.90
2019-02-23T21:34:08.745Z,56.00
2019-02-23T21:36:29.031Z,56.00
2019-02-23T21:38:49.296Z,56.40
2019-02-23T21:41:09.553Z,57.30
2019-02-23T21:43:29.894Z,57.40
2019-02-23T21:45:50.232Z,57.50
2019-02-23T21:48:10.590Z,57.10
2019-02-23T21:50:30.963Z,56.90
2019-02-23T21:52:51.335Z,57.20
2019-02-23T21:55:11.750Z,57.10
2019-02-23T21:57:32.308Z,56.80
2019-02-23T21:59:52.786Z,56.70
2019-02-23T22:02:13.132Z,56.70
2019-02-23T22:04:33.549Z,57.10
2019-02-23T22:06:54.450Z,57.60
2019-02-23T22:09:17.373Z,57.60
2019-02-23T22:11:38.015Z,58.10
2019-02-23T22:13:58.464Z,58.40
2019-02-23T22:16:18.991Z,58.80
2019-02-23T22:18:39.335Z,58.10
2019-02-23T22:20:59.709Z,58.30
2019-02-23T22:23:20.074Z,58.70
2019-02-23T22:25:40.397Z,59.00
2019-02-23T22:28:00.780Z,58.80
2019-02-23T22:30:21.080Z,58.80
2019-02-23T22:32:41.450Z,59.70
2019-02-23T22:35:01.729Z,60.70
2019-02-23T22:37:23.179Z,60.30
2019-02-23T22:39:44.463Z,60.30
2019-02-23T22:42:04.758Z,60.70
2019-02-23T22:44:25.048Z,61.00
2019-02-23T22:46:45.459Z,61.20
2019-02-23T22:49:05.881Z,60.90
2019-02-23T22:51:26.215Z,60.50
2019-02-23T22:53:46.507Z,60.70
2019-02-23T22:56:06.849Z,61.00
2019-02-23T22:58:27.150Z,60.70
2019-02-23T23:00:55.000Z,60.40
2019-02-23T23:03:16.992Z,60.50
2019-02-23T23:05:37.363Z,60.30
2019-02-23T23:07:57.762Z,60.60
2019-02-23T23:10:19.131Z,60.70
2019-02-23T23:12:39.751Z,60.30
2019-02-23T23:15:00.352Z,59.80
2019-02-23T23:17:20.704Z,59.80
2019-02-23T23:19:41.139Z,60.40
2019-02-23T23:22:01.590Z,60.40
2019-02-23T23:24:21.997Z,60.60
2019-02-23T23:26:42.743Z,61.20
2019-02-23T23:29:03.303Z,61.10
2019-02-23T23:31:24.861Z,61.40
2019-02-23T23:33:45.318Z,61.40
2019-02-23T23:36:05.740Z,61.60
2019-02-23T23:38:26.019Z,62.70
2019-02-23T23:40:46.604Z,61.70
2019-02-23T23:43:07.091Z,61.80
2019-02-23T23:45:27.476Z,62.60
2019-02-23T23:47:47.850Z,62.80
2019-02-23T23:50:08.147Z,62.90
2019-02-23T23:52:29.649Z,63.00
2019-02-23T23:54:49.985Z,63.40
2019-02-23T23:57:10.581Z,63.80
2019-02-23T23:59:30.963Z,63.90
